sensor_id;sensor_type;location;lat;lon;timestamp;P1;durP1;ratioP1;P2;durP2;ratioP2
11245;SDS011;59870;50.106;8.580;2023-02-05T00:00:47;10.20;;;9.37;;
11245;SDS011;59870;50.106;8.580;2023-02-05T00:03:14;11.83;;;9.33;;
11245;SDS011;59870;50.106;8.580;2023-02-05T00:05:42;9.47;;;8.37;;
11245;SDS011;59870;50.106;8.580;2023-02-05T00:08:09;9.57;;;8.63;;
11245;SDS011;59870;50.106;8.580;2023-02-05T00:10:37;11.13;;;8.20;;
11245;SDS011;59870;50.106;8.580;2023-02-05T00:13:04;10.57;;;7.87;;
11245;SDS011;59870;50.106;8.580;2023-02-05T00:15:38;10.87;;;9.20;;
11245;SDS011;59870;50.106;8.580;2023-02-05T00:18:06;12.87;;;9.47;;
11245;SDS011;59870;50.106;8.580;2023-02-05T00:20:33;9.50;;;8.60;;
11245;SDS011;59870;50.106;8.580;2023-02-05T00:23:02;10.80;;;9.70;;
11245;SDS011;59870;50.106;8.580;2023-02-05T00:25:29;10.33;;;9.43;;
11245;SDS011;59870;50.106;8.580;2023-02-05T00:27:58;11.07;;;9.03;;
11245;SDS011;59870;50.106;8.580;2023-02-05T00:30:25;10.27;;;9.30;;
11245;SDS011;59870;50.106;8.580;2023-02-05T00:32:54;10.87;;;8.97;;
11245;SDS011;59870;50.106;8.580;2023-02-05T00:35:23;10.57;;;8.30;;
11245;SDS011;59870;50.106;8.580;2023-02-05T00:37:50;10.10;;;8.67;;
11245;SDS011;59870;50.106;8.580;2023-02-05T00:40:17;10.27;;;9.23;;
11245;SDS011;59870;50.106;8.580;2023-02-05T00:42:45;9.53;;;8.70;;
11245;SDS011;59870;50.106;8.580;2023-02-05T00:45:12;9.53;;;8.63;;
11245;SDS011;59870;50.106;8.580;2023-02-05T00:47:40;9.80;;;8.90;;
11245;SDS011;59870;50.106;8.580;2023-02-05T00:50:08;9.63;;;8.80;;
11245;SDS011;59870;50.106;8.580;2023-02-05T00:52:36;9.70;;;8.67;;
11245;SDS011;59870;50.106;8.580;2023-02-05T00:55:04;8.97;;;8.27;;
11245;SDS011;59870;50.106;8.580;2023-02-05T00:57:31;9.47;;;8.63;;
11245;SDS011;59870;50.106;8.580;2023-02-05T00:59:59;10.33;;;9.33;;
11245;SDS011;59870;50.106;8.580;2023-02-05T01:02:26;9.93;;;9.00;;
11245;SDS011;59870;50.106;8.580;2023-02-05T01:04:53;9.97;;;8.93;;
11245;SDS011;59870;50.106;8.580;2023-02-05T01:07:21;9.67;;;8.73;;
11245;SDS011;59870;50.106;8.580;2023-02-05T01:09:49;9.87;;;8.90;;
11245;SDS011;59870;50.106;8.580;2023-02-05T01:12:16;9.80;;;8.70;;
11245;SDS011;59870;50.106;8.580;2023-02-05T01:14:43;9.53;;;8.47;;
11245;SDS011;59870;50.106;8.580;2023-02-05T01:17:11;9.70;;;8.80;;
11245;SDS011;59870;50.106;8.580;2023-02-05T01:19:39;9.80;;;8.80;;
11245;SDS011;59870;50.106;8.580;2023-02-05T01:22:06;9.83;;;8.93;;
11245;SDS011;59870;50.106;8.580;2023-02-05T01:24:34;11.13;;;9.70;;
11245;SDS011;59870;50.106;8.580;2023-02-05T01:27:01;11.90;;;9.50;;
11245;SDS011;59870;50.106;8.580;2023-02-05T01:29:29;9.10;;;8.43;;
11245;SDS011;59870;50.106;8.580;2023-02-05T01:31:56;9.60;;;8.80;;
11245;SDS011;59870;50.106;8.580;2023-02-05T01:34:24;9.97;;;8.97;;
11245;SDS011;59870;50.106;8.580;2023-02-05T01:36:51;9.93;;;9.03;;
11245;SDS011;59870;50.106;8.580;2023-02-05T01:39:18;9.80;;;8.80;;
11245;SDS011;59870;50.106;8.580;2023-02-05T01:41:46;9.20;;;8.20;;
11245;SDS011;59870;50.106;8.580;2023-02-05T01:44:15;9.30;;;8.50;;
11245;SDS011;59870;50.106;8.580;2023-02-05T01:46:44;9.23;;;8.53;;
11245;SDS011;59870;50.106;8.580;2023-02-05T01:49:14;10.07;;;9.17;;
11245;SDS011;59870;50.106;8.580;2023-02-05T01:51:47;9.37;;;8.20;;
11245;SDS011;59870;50.106;8.580;2023-02-05T01:54:15;8.37;;;7.63;;
11245;SDS011;59870;50.106;8.580;2023-02-05T01:56:52;8.87;;;7.97;;
11245;SDS011;59870;50.106;8.580;2023-02-05T01:59:24;8.83;;;8.03;;
11245;SDS011;59870;50.106;8.580;2023-02-05T02:01:54;8.77;;;8.07;;
11245;SDS011;59870;50.106;8.580;2023-02-05T02:04:42;10.90;;;8.30;;
11245;SDS011;59870;50.106;8.580;2023-02-05T02:07:19;7.67;;;6.93;;
11245;SDS011;59870;50.106;8.580;2023-02-05T02:09:48;9.60;;;8.97;;
11245;SDS011;59870;50.106;8.580;2023-02-05T02:12:19;9.00;;;8.17;;
11245;SDS011;59870;50.106;8.580;2023-02-05T02:14:54;9.43;;;7.77;;
11245;SDS011;59870;50.106;8.580;2023-02-05T02:17:25;9.43;;;8.60;;
11245;SDS011;59870;50.106;8.580;2023-02-05T02:20:01;9.47;;;8.73;;
11245;SDS011;59870;50.106;8.580;2023-02-05T02:25:27;9.53;;;8.80;;
11245;SDS011;59870;50.106;8.580;2023-02-05T02:28:21;8.97;;;8.27;;
11245;SDS011;59870;50.106;8.580;2023-02-05T02:31:04;7.97;;;7.27;;
11245;SDS011;59870;50.106;8.580;2023-02-05T02:33:41;9.80;;;9.00;;
11245;SDS011;59870;50.106;8.580;2023-02-05T02:36:35;10.70;;;8.10;;
11245;SDS011;59870;50.106;8.580;2023-02-05T02:41:53;8.40;;;7.70;;
11245;SDS011;59870;50.106;8.580;2023-02-05T02:44:31;8.83;;;8.10;;
11245;SDS011;59870;50.106;8.580;2023-02-05T02:47:19;8.93;;;8.03;;
11245;SDS011;59870;50.106;8.580;2023-02-05T02:49:55;9.30;;;8.23;;
11245;SDS011;59870;50.106;8.580;2023-02-05T02:52:30;8.43;;;7.83;;
11245;SDS011;59870;50.106;8.580;2023-02-05T02:55:01;7.70;;;7.20;;
11245;SDS011;59870;50.106;8.580;2023-02-05T02:57:34;8.97;;;8.23;;
11245;SDS011;59870;50.106;8.580;2023-02-05T03:00:08;7.77;;;7.17;;
11245;SDS011;59870;50.106;8.580;2023-02-05T03:02:39;8.27;;;7.50;;
11245;SDS011;59870;50.106;8.580;2023-02-05T03:05:10;7.70;;;7.10;;
11245;SDS011;59870;50.106;8.580;2023-02-05T03:07:46;7.80;;;7.00;;
11245;SDS011;59870;50.106;8.580;2023-02-05T03:12:44;8.07;;;7.27;;
11245;SDS011;59870;50.106;8.580;2023-02-05T03:15:12;8.80;;;8.10;;
11245;SDS011;59870;50.106;8.580;2023-02-05T03:17:39;8.23;;;7.53;;
11245;SDS011;59870;50.106;8.580;2023-02-05T03:22:45;9.20;;;8.40;;
11245;SDS011;59870;50.106;8.580;2023-02-05T03:25:12;8.53;;;7.80;;
11245;SDS011;59870;50.106;8.580;2023-02-05T03:27:42;8.67;;;7.97;;
11245;SDS011;59870;50.106;8.580;2023-02-05T03:30:09;8.63;;;8.03;;
11245;SDS011;59870;50.106;8.580;2023-02-05T03:32:43;8.97;;;8.17;;
11245;SDS011;59870;50.106;8.580;2023-02-05T03:35:25;8.33;;;7.63;;
11245;SDS011;59870;50.106;8.580;2023-02-05T03:38:08;8.50;;;7.90;;
11245;SDS011;59870;50.106;8.580;2023-02-05T03:40:51;8.23;;;7.53;;
11245;SDS011;59870;50.106;8.580;2023-02-05T03:43:29;9.23;;;8.03;;
11245;SDS011;59870;50.106;8.580;2023-02-05T03:46:46;9.63;;;8.83;;
11245;SDS011;59870;50.106;8.580;2023-02-05T03:51:45;9.03;;;8.20;;
11245;SDS011;59870;50.106;8.580;2023-02-05T03:54:29;9.13;;;8.30;;
11245;SDS011;59870;50.106;8.580;2023-02-05T03:57:08;7.93;;;7.23;;
11245;SDS011;59870;50.106;8.580;2023-02-05T03:59:47;7.37;;;6.87;;
11245;SDS011;59870;50.106;8.580;2023-02-05T04:02:16;7.27;;;6.83;;
11245;SDS011;59870;50.106;8.580;2023-02-05T04:04:46;6.93;;;6.43;;
11245;SDS011;59870;50.106;8.580;2023-02-05T04:07:14;8.10;;;7.30;;
11245;SDS011;59870;50.106;8.580;2023-02-05T04:09:42;7.73;;;6.90;;
11245;SDS011;59870;50.106;8.580;2023-02-05T04:12:09;7.90;;;7.20;;
11245;SDS011;59870;50.106;8.580;2023-02-05T04:14:38;7.87;;;7.27;;
11245;SDS011;59870;50.106;8.580;2023-02-05T04:17:05;8.37;;;7.50;;
11245;SDS011;59870;50.106;8.580;2023-02-05T04:19:33;8.00;;;7.00;;
11245;SDS011;59870;50.106;8.580;2023-02-05T04:22:02;8.10;;;7.43;;
11245;SDS011;59870;50.106;8.580;2023-02-05T04:24:32;7.53;;;6.93;;
11245;SDS011;59870;50.106;8.580;2023-02-05T04:27:01;7.97;;;7.17;;
11245;SDS011;59870;50.106;8.580;2023-02-05T04:29:29;6.97;;;6.40;;
11245;SDS011;59870;50.106;8.580;2023-02-05T04:31:57;8.20;;;7.40;;
11245;SDS011;59870;50.106;8.580;2023-02-05T04:34:24;7.87;;;7.27;;
11245;SDS011;59870;50.106;8.580;2023-02-05T04:36:53;7.83;;;7.17;;
11245;SDS011;59870;50.106;8.580;2023-02-05T04:39:21;8.03;;;7.33;;
11245;SDS011;59870;50.106;8.580;2023-02-05T04:41:49;8.57;;;7.70;;
11245;SDS011;59870;50.106;8.580;2023-02-05T04:44:16;7.73;;;6.97;;
11245;SDS011;59870;50.106;8.580;2023-02-05T04:46:44;7.80;;;7.03;;
11245;SDS011;59870;50.106;8.580;2023-02-05T04:49:11;8.07;;;7.43;;
11245;SDS011;59870;50.106;8.580;2023-02-05T04:51:38;8.60;;;7.23;;
11245;SDS011;59870;50.106;8.580;2023-02-05T04:54:06;7.57;;;6.97;;
11245;SDS011;59870;50.106;8.580;2023-02-05T04:56:33;7.80;;;7.00;;
11245;SDS011;59870;50.106;8.580;2023-02-05T04:59:00;8.10;;;7.27;;
11245;SDS011;59870;50.106;8.580;2023-02-05T05:01:28;7.23;;;6.63;;
11245;SDS011;59870;50.106;8.580;2023-02-05T05:03:55;6.60;;;6.10;;
11245;SDS011;59870;50.106;8.580;2023-02-05T05:06:22;7.67;;;6.30;;
11245;SDS011;59870;50.106;8.580;2023-02-05T05:08:50;8.63;;;7.43;;
11245;SDS011;59870;50.106;8.580;2023-02-05T05:11:19;7.97;;;6.67;;
11245;SDS011;59870;50.106;8.580;2023-02-05T05:13:46;7.37;;;6.63;;
11245;SDS011;59870;50.106;8.580;2023-02-05T05:16:15;8.37;;;7.10;;
11245;SDS011;59870;50.106;8.580;2023-02-05T05:18:43;8.33;;;6.20;;
11245;SDS011;59870;50.106;8.580;2023-02-05T05:21:10;7.60;;;6.57;;
11245;SDS011;59870;50.106;8.580;2023-02-05T05:23:38;9.07;;;6.73;;
11245;SDS011;59870;50.106;8.580;2023-02-05T05:26:07;7.70;;;7.00;;
11245;SDS011;59870;50.106;8.580;2023-02-05T05:28:35;6.93;;;6.33;;
11245;SDS011;59870;50.106;8.580;2023-02-05T05:31:11;7.60;;;6.40;;
11245;SDS011;59870;50.106;8.580;2023-02-05T05:33:42;8.10;;;7.30;;
11245;SDS011;59870;50.106;8.580;2023-02-05T05:36:10;8.07;;;7.27;;
11245;SDS011;59870;50.106;8.580;2023-02-05T05:38:38;11.03;;;7.77;;
11245;SDS011;59870;50.106;8.580;2023-02-05T05:41:05;7.60;;;6.80;;
11245;SDS011;59870;50.106;8.580;2023-02-05T05:43:52;11.03;;;6.83;;
11245;SDS011;59870;50.106;8.580;2023-02-05T05:46:21;6.67;;;6.17;;
11245;SDS011;59870;50.106;8.580;2023-02-05T05:48:55;6.67;;;6.17;;
11245;SDS011;59870;50.106;8.580;2023-02-05T05:51:24;6.40;;;5.80;;
11245;SDS011;59870;50.106;8.580;2023-02-05T05:53:53;6.87;;;5.90;;
11245;SDS011;59870;50.106;8.580;2023-02-05T05:56:20;6.90;;;6.30;;
11245;SDS011;59870;50.106;8.580;2023-02-05T05:58:48;6.87;;;6.20;;
11245;SDS011;59870;50.106;8.580;2023-02-05T06:01:18;6.63;;;6.03;;
11245;SDS011;59870;50.106;8.580;2023-02-05T06:03:46;6.73;;;6.23;;
11245;SDS011;59870;50.106;8.580;2023-02-05T06:06:14;7.97;;;6.33;;
11245;SDS011;59870;50.106;8.580;2023-02-05T06:08:41;8.53;;;6.70;;
11245;SDS011;59870;50.106;8.580;2023-02-05T06:11:08;8.80;;;7.20;;
11245;SDS011;59870;50.106;8.580;2023-02-05T06:13:36;7.53;;;6.40;;
11245;SDS011;59870;50.106;8.580;2023-02-05T06:16:03;12.20;;;6.13;;
11245;SDS011;59870;50.106;8.580;2023-02-05T06:18:31;8.13;;;6.23;;
11245;SDS011;59870;50.106;8.580;2023-02-05T06:21:09;6.87;;;6.17;;
11245;SDS011;59870;50.106;8.580;2023-02-05T06:23:48;7.97;;;6.43;;
11245;SDS011;59870;50.106;8.580;2023-02-05T06:26:16;8.00;;;7.17;;
11245;SDS011;59870;50.106;8.580;2023-02-05T06:31:54;7.63;;;6.57;;
11245;SDS011;59870;50.106;8.580;2023-02-05T06:34:26;10.67;;;7.30;;
11245;SDS011;59870;50.106;8.580;2023-02-05T06:36:55;8.10;;;6.90;;
11245;SDS011;59870;50.106;8.580;2023-02-05T06:39:22;7.63;;;6.83;;
11245;SDS011;59870;50.106;8.580;2023-02-05T06:41:55;8.80;;;6.37;;
11245;SDS011;59870;50.106;8.580;2023-02-05T06:44:23;7.10;;;6.50;;
11245;SDS011;59870;50.106;8.580;2023-02-05T06:50:02;10.43;;;7.33;;
11245;SDS011;59870;50.106;8.580;2023-02-05T07:02:02;7.80;;;6.90;;
11245;SDS011;59870;50.106;8.580;2023-02-05T07:07:37;8.63;;;7.80;;
11245;SDS011;59870;50.106;8.580;2023-02-05T07:22:56;11.27;;;8.37;;
11245;SDS011;59870;50.106;8.580;2023-02-05T07:25:23;9.50;;;8.10;;
11245;SDS011;59870;50.106;8.580;2023-02-05T07:27:51;10.60;;;8.73;;
11245;SDS011;59870;50.106;8.580;2023-02-05T07:30:18;10.10;;;8.57;;
11245;SDS011;59870;50.106;8.580;2023-02-05T07:32:45;11.00;;;8.67;;
11245;SDS011;59870;50.106;8.580;2023-02-05T07:35:13;12.73;;;9.07;;
11245;SDS011;59870;50.106;8.580;2023-02-05T07:37:40;10.97;;;8.87;;
11245;SDS011;59870;50.106;8.580;2023-02-05T07:40:08;9.43;;;8.63;;
11245;SDS011;59870;50.106;8.580;2023-02-05T07:42:36;14.97;;;9.83;;
11245;SDS011;59870;50.106;8.580;2023-02-05T07:45:04;12.47;;;9.83;;
11245;SDS011;59870;50.106;8.580;2023-02-05T07:47:31;11.43;;;10.23;;
11245;SDS011;59870;50.106;8.580;2023-02-05T07:49:58;13.03;;;9.97;;
11245;SDS011;59870;50.106;8.580;2023-02-05T07:52:28;12.30;;;10.47;;
11245;SDS011;59870;50.106;8.580;2023-02-05T07:54:55;14.40;;;9.63;;
11245;SDS011;59870;50.106;8.580;2023-02-05T07:57:22;15.10;;;9.97;;
11245;SDS011;59870;50.106;8.580;2023-02-05T07:59:50;12.13;;;9.27;;
11245;SDS011;59870;50.106;8.580;2023-02-05T08:02:17;16.70;;;10.13;;
11245;SDS011;59870;50.106;8.580;2023-02-05T08:04:44;10.50;;;9.50;;
11245;SDS011;59870;50.106;8.580;2023-02-05T08:07:12;12.37;;;10.13;;
11245;SDS011;59870;50.106;8.580;2023-02-05T08:09:39;14.43;;;9.80;;
11245;SDS011;59870;50.106;8.580;2023-02-05T08:12:07;15.17;;;10.00;;
11245;SDS011;59870;50.106;8.580;2023-02-05T08:14:34;13.10;;;9.73;;
11245;SDS011;59870;50.106;8.580;2023-02-05T08:17:02;12.00;;;10.50;;
11245;SDS011;59870;50.106;8.580;2023-02-05T08:22:42;15.30;;;10.27;;
11245;SDS011;59870;50.106;8.580;2023-02-05T08:25:39;12.67;;;9.80;;
11245;SDS011;59870;50.106;8.580;2023-02-05T08:31:19;13.93;;;10.27;;
11245;SDS011;59870;50.106;8.580;2023-02-05T08:33:47;15.07;;;10.90;;
11245;SDS011;59870;50.106;8.580;2023-02-05T08:36:16;11.53;;;9.90;;
11245;SDS011;59870;50.106;8.580;2023-02-05T08:38:48;14.27;;;10.00;;
11245;SDS011;59870;50.106;8.580;2023-02-05T08:41:17;13.43;;;10.73;;
11245;SDS011;59870;50.106;8.580;2023-02-05T08:43:46;16.33;;;11.07;;
11245;SDS011;59870;50.106;8.580;2023-02-05T08:49:25;12.17;;;10.10;;
11245;SDS011;59870;50.106;8.580;2023-02-05T08:51:52;17.47;;;11.20;;
11245;SDS011;59870;50.106;8.580;2023-02-05T08:54:20;16.80;;;10.67;;
11245;SDS011;59870;50.106;8.580;2023-02-05T08:56:48;11.70;;;10.50;;
11245;SDS011;59870;50.106;8.580;2023-02-05T08:59:18;14.43;;;10.80;;
11245;SDS011;59870;50.106;8.580;2023-02-05T09:01:46;11.80;;;10.60;;
11245;SDS011;59870;50.106;8.580;2023-02-05T09:04:18;13.53;;;9.30;;
11245;SDS011;59870;50.106;8.580;2023-02-05T09:06:49;12.83;;;10.33;;
11245;SDS011;59870;50.106;8.580;2023-02-05T09:09:18;13.43;;;10.77;;
11245;SDS011;59870;50.106;8.580;2023-02-05T09:11:46;16.63;;;10.77;;
11245;SDS011;59870;50.106;8.580;2023-02-05T09:18:12;11.23;;;10.00;;
11245;SDS011;59870;50.106;8.580;2023-02-05T09:20:45;12.90;;;11.60;;
11245;SDS011;59870;50.106;8.580;2023-02-05T09:23:16;13.23;;;11.20;;
11245;SDS011;59870;50.106;8.580;2023-02-05T09:25:45;13.43;;;11.60;;
11245;SDS011;59870;50.106;8.580;2023-02-05T09:28:13;15.93;;;12.43;;
11245;SDS011;59870;50.106;8.580;2023-02-05T09:30:41;18.03;;;11.40;;
11245;SDS011;59870;50.106;8.580;2023-02-05T09:39:23;13.03;;;11.40;;
11245;SDS011;59870;50.106;8.580;2023-02-05T09:42:21;12.40;;;11.13;;
11245;SDS011;59870;50.106;8.580;2023-02-05T09:45:02;12.77;;;11.13;;
11245;SDS011;59870;50.106;8.580;2023-02-05T09:51:02;12.97;;;11.50;;
11245;SDS011;59870;50.106;8.580;2023-02-05T09:53:32;14.20;;;11.70;;
11245;SDS011;59870;50.106;8.580;2023-02-05T09:56:03;12.37;;;11.17;;
11245;SDS011;59870;50.106;8.580;2023-02-05T09:58:39;13.80;;;11.37;;
11245;SDS011;59870;50.106;8.580;2023-02-05T10:01:20;12.07;;;10.97;;
11245;SDS011;59870;50.106;8.580;2023-02-05T10:03:55;12.63;;;11.47;;
11245;SDS011;59870;50.106;8.580;2023-02-05T10:09:23;14.57;;;11.70;;
11245;SDS011;59870;50.106;8.580;2023-02-05T10:20:32;16.10;;;10.97;;
11245;SDS011;59870;50.106;8.580;2023-02-05T10:25:57;12.53;;;11.30;;
11245;SDS011;59870;50.106;8.580;2023-02-05T10:28:39;15.50;;;11.80;;
11245;SDS011;59870;50.106;8.580;2023-02-05T10:31:41;16.80;;;11.47;;
11245;SDS011;59870;50.106;8.580;2023-02-05T10:34:17;14.43;;;11.87;;
11245;SDS011;59870;50.106;8.580;2023-02-05T10:36:52;15.77;;;12.17;;
11245;SDS011;59870;50.106;8.580;2023-02-05T10:39:21;15.00;;;11.60;;
11245;SDS011;59870;50.106;8.580;2023-02-05T10:41:58;18.57;;;12.83;;
11245;SDS011;59870;50.106;8.580;2023-02-05T10:44:45;12.83;;;11.60;;
11245;SDS011;59870;50.106;8.580;2023-02-05T10:47:17;13.17;;;11.57;;
11245;SDS011;59870;50.106;8.580;2023-02-05T10:49:52;18.97;;;12.40;;
11245;SDS011;59870;50.106;8.580;2023-02-05T10:52:26;14.27;;;11.30;;
11245;SDS011;59870;50.106;8.580;2023-02-05T10:54:54;17.60;;;12.40;;
11245;SDS011;59870;50.106;8.580;2023-02-05T11:00:20;17.57;;;12.77;;
11245;SDS011;59870;50.106;8.580;2023-02-05T11:02:50;16.20;;;12.30;;
11245;SDS011;59870;50.106;8.580;2023-02-05T11:10:35;15.63;;;12.77;;
11245;SDS011;59870;50.106;8.580;2023-02-05T11:19:32;15.23;;;12.83;;
11245;SDS011;59870;50.106;8.580;2023-02-05T11:23:37;21.50;;;13.73;;
11245;SDS011;59870;50.106;8.580;2023-02-05T11:26:21;14.60;;;12.23;;
11245;SDS011;59870;50.106;8.580;2023-02-05T11:31:46;15.57;;;13.60;;
11245;SDS011;59870;50.106;8.580;2023-02-05T11:44:15;16.17;;;14.50;;
11245;SDS011;59870;50.106;8.580;2023-02-05T13:38:25;17.10;;;15.40;;
11245;SDS011;59870;50.106;8.580;2023-02-05T13:41:23;16.40;;;14.80;;
11245;SDS011;59870;50.106;8.580;2023-02-05T13:47:07;14.83;;;13.47;;
11245;SDS011;59870;50.106;8.580;2023-02-05T14:00:54;14.83;;;12.87;;
11245;SDS011;59870;50.106;8.580;2023-02-05T14:03:32;14.50;;;13.00;;
11245;SDS011;59870;50.106;8.580;2023-02-05T14:06:16;13.33;;;12.03;;
11245;SDS011;59870;50.106;8.580;2023-02-05T14:08:48;15.27;;;13.80;;
11245;SDS011;59870;50.106;8.580;2023-02-05T14:11:22;12.87;;;11.67;;
11245;SDS011;59870;50.106;8.580;2023-02-05T14:16:51;13.70;;;12.33;;
11245;SDS011;59870;50.106;8.580;2023-02-05T14:19:25;13.00;;;11.70;;
11245;SDS011;59870;50.106;8.580;2023-02-05T14:22:12;13.57;;;12.37;;
11245;SDS011;59870;50.106;8.580;2023-02-05T14:25:01;13.37;;;12.27;;
11245;SDS011;59870;50.106;8.580;2023-02-05T14:35:38;18.23;;;15.00;;
11245;SDS011;59870;50.106;8.580;2023-02-05T14:38:13;15.00;;;13.43;;
11245;SDS011;59870;50.106;8.580;2023-02-05T14:41:09;15.63;;;14.13;;
11245;SDS011;59870;50.106;8.580;2023-02-05T14:43:40;16.10;;;13.87;;
11245;SDS011;59870;50.106;8.580;2023-02-05T14:46:19;15.80;;;13.30;;
11245;SDS011;59870;50.106;8.580;2023-02-05T14:48:56;14.87;;;12.80;;
11245;SDS011;59870;50.106;8.580;2023-02-05T14:54:20;15.73;;;14.07;;
11245;SDS011;59870;50.106;8.580;2023-02-05T14:56:54;15.70;;;14.10;;
11245;SDS011;59870;50.106;8.580;2023-02-05T14:59:53;15.67;;;12.70;;
11245;SDS011;59870;50.106;8.580;2023-02-05T15:05:26;13.70;;;12.27;;
11245;SDS011;59870;50.106;8.580;2023-02-05T15:08:26;12.70;;;11.67;;
11245;SDS011;59870;50.106;8.580;2023-02-05T15:11:12;13.53;;;11.33;;
11245;SDS011;59870;50.106;8.580;2023-02-05T15:16:47;12.23;;;11.23;;
11245;SDS011;59870;50.106;8.580;2023-02-05T15:19:47;13.40;;;12.30;;
11245;SDS011;59870;50.106;8.580;2023-02-05T15:22:23;15.00;;;13.50;;
11245;SDS011;59870;50.106;8.580;2023-02-05T15:24:54;13.80;;;12.43;;
11245;SDS011;59870;50.106;8.580;2023-02-05T15:27:25;13.53;;;12.43;;
11245;SDS011;59870;50.106;8.580;2023-02-05T15:30:06;13.63;;;12.53;;
11245;SDS011;59870;50.106;8.580;2023-02-05T15:47:04;12.90;;;11.77;;
11245;SDS011;59870;50.106;8.580;2023-02-05T15:49:42;11.80;;;10.77;;
11245;SDS011;59870;50.106;8.580;2023-02-05T15:55:15;11.57;;;10.70;;
11245;SDS011;59870;50.106;8.580;2023-02-05T15:57:49;12.60;;;11.63;;
11245;SDS011;59870;50.106;8.580;2023-02-05T16:03:24;13.57;;;12.27;;
11245;SDS011;59870;50.106;8.580;2023-02-05T16:05:58;11.83;;;10.83;;
11245;SDS011;59870;50.106;8.580;2023-02-05T16:08:27;12.50;;;11.40;;
11245;SDS011;59870;50.106;8.580;2023-02-05T16:10:56;12.60;;;11.57;;
11245;SDS011;59870;50.106;8.580;2023-02-05T16:13:30;11.17;;;10.43;;
11245;SDS011;59870;50.106;8.580;2023-02-05T16:16:03;12.43;;;11.43;;
11245;SDS011;59870;50.106;8.580;2023-02-05T16:18:43;11.93;;;11.13;;
11245;SDS011;59870;50.106;8.580;2023-02-05T16:27:05;12.83;;;11.53;;
11245;SDS011;59870;50.106;8.580;2023-02-05T16:29:48;12.23;;;11.33;;
11245;SDS011;59870;50.106;8.580;2023-02-05T16:32:27;13.33;;;12.03;;
11245;SDS011;59870;50.106;8.580;2023-02-05T16:34:57;14.23;;;12.97;;
11245;SDS011;59870;50.106;8.580;2023-02-05T16:37:29;12.47;;;11.37;;
11245;SDS011;59870;50.106;8.580;2023-02-05T16:40:00;11.53;;;10.63;;
11245;SDS011;59870;50.106;8.580;2023-02-05T16:42:38;10.83;;;10.03;;
11245;SDS011;59870;50.106;8.580;2023-02-05T16:45:16;11.67;;;10.67;;
11245;SDS011;59870;50.106;8.580;2023-02-05T16:50:53;11.03;;;9.93;;
11245;SDS011;59870;50.106;8.580;2023-02-05T16:53:29;11.90;;;10.70;;
11245;SDS011;59870;50.106;8.580;2023-02-05T16:56:12;11.27;;;10.37;;
11245;SDS011;59870;50.106;8.580;2023-02-05T17:02:14;13.07;;;11.87;;
11245;SDS011;59870;50.106;8.580;2023-02-05T17:04:57;11.57;;;10.77;;
11245;SDS011;59870;50.106;8.580;2023-02-05T17:07:29;11.73;;;10.90;;
11245;SDS011;59870;50.106;8.580;2023-02-05T17:15:35;12.70;;;11.60;;
11245;SDS011;59870;50.106;8.580;2023-02-05T17:18:17;11.80;;;10.77;;
11245;SDS011;59870;50.106;8.580;2023-02-05T17:23:56;12.73;;;11.70;;
11245;SDS011;59870;50.106;8.580;2023-02-05T17:26:30;11.60;;;10.83;;
11245;SDS011;59870;50.106;8.580;2023-02-05T17:29:03;12.73;;;11.60;;
11245;SDS011;59870;50.106;8.580;2023-02-05T17:31:45;11.23;;;10.33;;
11245;SDS011;59870;50.106;8.580;2023-02-05T17:37:21;12.57;;;11.47;;
11245;SDS011;59870;50.106;8.580;2023-02-05T18:01:55;11.53;;;10.63;;
11245;SDS011;59870;50.106;8.580;2023-02-05T18:14:05;11.47;;;10.37;;
11245;SDS011;59870;50.106;8.580;2023-02-05T19:51:21;12.60;;;11.70;;
11245;SDS011;59870;50.106;8.580;2023-02-05T19:53:49;12.57;;;11.57;;
11245;SDS011;59870;50.106;8.580;2023-02-05T19:56:58;13.30;;;11.90;;
11245;SDS011;59870;50.106;8.580;2023-02-05T20:05:37;12.27;;;11.37;;
11245;SDS011;59870;50.106;8.580;2023-02-05T20:11:59;12.57;;;11.57;;
11245;SDS011;59870;50.106;8.580;2023-02-05T20:14:27;12.23;;;11.17;;
11245;SDS011;59870;50.106;8.580;2023-02-05T20:26:57;13.30;;;12.13;;
11245;SDS011;59870;50.106;8.580;2023-02-05T20:47:19;12.80;;;11.80;;
11245;SDS011;59870;50.106;8.580;2023-02-05T21:11:41;12.70;;;11.63;;
11245;SDS011;59870;50.106;8.580;2023-02-05T21:14:09;11.70;;;10.80;;
11245;SDS011;59870;50.106;8.580;2023-02-05T21:25:01;14.13;;;12.87;;
11245;SDS011;59870;50.106;8.580;2023-02-05T21:27:29;13.67;;;12.57;;
11245;SDS011;59870;50.106;8.580;2023-02-05T21:29:56;13.73;;;12.50;;
11245;SDS011;59870;50.106;8.580;2023-02-05T21:32:24;15.30;;;13.83;;
11245;SDS011;59870;50.106;8.580;2023-02-05T21:34:52;14.10;;;12.80;;
11245;SDS011;59870;50.106;8.580;2023-02-05T21:37:19;14.77;;;13.43;;
11245;SDS011;59870;50.106;8.580;2023-02-05T21:39:47;13.63;;;12.43;;
11245;SDS011;59870;50.106;8.580;2023-02-05T21:42:18;14.80;;;13.70;;
11245;SDS011;59870;50.106;8.580;2023-02-05T21:44:46;14.17;;;13.03;;
11245;SDS011;59870;50.106;8.580;2023-02-05T21:47:16;14.80;;;13.60;;
11245;SDS011;59870;50.106;8.580;2023-02-05T21:49:44;14.83;;;13.47;;
11245;SDS011;59870;50.106;8.580;2023-02-05T21:52:13;14.03;;;12.87;;
11245;SDS011;59870;50.106;8.580;2023-02-05T21:54:40;14.67;;;13.50;;
11245;SDS011;59870;50.106;8.580;2023-02-05T21:57:08;14.03;;;12.83;;
11245;SDS011;59870;50.106;8.580;2023-02-05T21:59:36;14.77;;;13.40;;
11245;SDS011;59870;50.106;8.580;2023-02-05T22:02:04;15.17;;;13.07;;
11245;SDS011;59870;50.106;8.580;2023-02-05T22:04:32;14.43;;;13.13;;
11245;SDS011;59870;50.106;8.580;2023-02-05T22:06:59;15.67;;;14.37;;
11245;SDS011;59870;50.106;8.580;2023-02-05T22:12:25;15.73;;;14.23;;
11245;SDS011;59870;50.106;8.580;2023-02-05T22:14:54;13.00;;;12.00;;
11245;SDS011;59870;50.106;8.580;2023-02-05T22:17:24;14.93;;;13.73;;
11245;SDS011;59870;50.106;8.580;2023-02-05T22:19:53;14.83;;;13.53;;
11245;SDS011;59870;50.106;8.580;2023-02-05T22:22:24;14.23;;;13.13;;
11245;SDS011;59870;50.106;8.580;2023-02-05T22:24:53;14.40;;;13.23;;
11245;SDS011;59870;50.106;8.580;2023-02-05T22:27:28;13.67;;;12.57;;
11245;SDS011;59870;50.106;8.580;2023-02-05T22:30:23;14.60;;;13.40;;
11245;SDS011;59870;50.106;8.580;2023-02-05T22:33:04;13.90;;;12.73;;
11245;SDS011;59870;50.106;8.580;2023-02-05T22:40:18;13.63;;;12.50;;
11245;SDS011;59870;50.106;8.580;2023-02-05T22:49:28;14.90;;;13.60;;
11245;SDS011;59870;50.106;8.580;2023-02-05T22:51:58;14.90;;;13.40;;
11245;SDS011;59870;50.106;8.580;2023-02-05T22:54:27;14.27;;;13.03;;
11245;SDS011;59870;50.106;8.580;2023-02-05T22:56:56;14.57;;;13.17;;
11245;SDS011;59870;50.106;8.580;2023-02-05T22:59:23;15.97;;;14.57;;
11245;SDS011;59870;50.106;8.580;2023-02-05T23:01:51;15.23;;;13.80;;
11245;SDS011;59870;50.106;8.580;2023-02-05T23:04:25;15.33;;;13.97;;
11245;SDS011;59870;50.106;8.580;2023-02-05T23:07:16;17.00;;;15.13;;
11245;SDS011;59870;50.106;8.580;2023-02-05T23:10:03;16.20;;;14.43;;
11245;SDS011;59870;50.106;8.580;2023-02-05T23:13:30;17.83;;;16.20;;
11245;SDS011;59870;50.106;8.580;2023-02-05T23:21:16;19.10;;;17.20;;
11245;SDS011;59870;50.106;8.580;2023-02-05T23:29:15;18.47;;;16.63;;
11245;SDS011;59870;50.106;8.580;2023-02-05T23:45:26;18.43;;;16.63;;
11245;SDS011;59870;50.106;8.580;2023-02-05T23:54:48;16.87;;;15.20;;
